createdAt,value
2019-01-17T00:02:06.799Z,3.30
2019-01-17T00:04:53.500Z,3.30
2019-01-17T00:07:33.429Z,3.30
2019-01-17T00:10:36.557Z,3.20
2019-01-17T00:13:20.211Z,3.20
2019-01-17T00:16:14.725Z,3.20
2019-01-17T00:19:06.188Z,3.20
2019-01-17T00:21:49.711Z,3.30
2019-01-17T00:24:37.804Z,3.30
2019-01-17T00:27:24.891Z,3.30
2019-01-17T00:30:13.607Z,3.30
2019-01-17T00:33:04.859Z,3.40
2019-01-17T00:36:01.952Z,3.40
2019-01-17T00:38:48.531Z,3.40
2019-01-17T00:41:42.868Z,3.40
2019-01-17T00:44:29.475Z,3.40
2019-01-17T00:47:10.414Z,3.50
2019-01-17T00:50:01.524Z,3.50
2019-01-17T00:52:52.426Z,3.60
2019-01-17T00:55:39.090Z,3.60
2019-01-17T00:58:23.012Z,3.70
2019-01-17T01:01:07.995Z,3.70
2019-01-17T01:03:58.375Z,3.80
2019-01-17T01:06:58.455Z,3.80
2019-01-17T01:09:59.163Z,3.90
2019-01-17T01:12:36.173Z,3.90
2019-01-17T01:15:33.632Z,3.80
2019-01-17T01:18:20.063Z,3.80
2019-01-17T01:21:01.895Z,3.80
2019-01-17T01:23:48.846Z,3.80
2019-01-17T01:26:39.047Z,3.70
2019-01-17T01:29:36.363Z,3.80
2019-01-17T01:32:15.942Z,3.70
2019-01-17T01:34:50.826Z,3.70
2019-01-17T01:37:37.558Z,3.60
2019-01-17T01:40:31.942Z,3.60
2019-01-17T01:43:16.403Z,3.60
2019-01-17T01:46:16.832Z,3.60
2019-01-17T01:48:58.798Z,3.60
2019-01-17T01:51:43.303Z,3.60
2019-01-17T01:54:12.384Z,3.60
2019-01-17T01:56:41.459Z,3.60
2019-01-17T01:59:10.379Z,3.60
2019-01-17T02:01:39.689Z,3.60
2019-01-17T02:04:08.903Z,3.60
2019-01-17T02:06:38.139Z,3.60
2019-01-17T02:09:08.626Z,3.60
2019-01-17T02:11:37.645Z,3.70
2019-01-17T02:14:07.695Z,3.70
2019-01-17T02:16:36.843Z,3.70
2019-01-17T02:19:05.931Z,3.60
2019-01-17T02:21:34.942Z,3.70
2019-01-17T02:24:04.191Z,3.70
2019-01-17T02:26:34.977Z,3.70
2019-01-17T02:29:04.099Z,3.70
2019-01-17T02:31:33.133Z,3.60
2019-01-17T02:34:02.091Z,3.70
2019-01-17T02:36:31.035Z,3.70
2019-01-17T02:39:00.357Z,3.70
2019-01-17T02:41:29.315Z,3.70
2019-01-17T02:43:58.255Z,3.70
2019-01-17T02:46:27.589Z,3.70
2019-01-17T02:48:56.740Z,3.70
2019-01-17T02:51:26.172Z,3.60
2019-01-17T02:53:55.130Z,3.70
2019-01-17T02:56:24.197Z,3.80
2019-01-17T02:58:53.412Z,3.90
2019-01-17T03:01:22.507Z,4.00
2019-01-17T03:03:51.798Z,4.20
2019-01-17T03:06:21.067Z,4.30
2019-01-17T03:08:50.782Z,4.30
2019-01-17T03:11:20.085Z,4.40
2019-01-17T03:13:49.379Z,4.40
2019-01-17T03:16:18.644Z,4.50
2019-01-17T03:18:47.663Z,4.50
2019-01-17T03:21:16.666Z,4.50
2019-01-17T03:23:45.711Z,4.60
2019-01-17T03:26:15.060Z,4.60
2019-01-17T03:28:44.195Z,4.70
2019-01-17T03:31:13.298Z,4.60
2019-01-17T03:33:42.283Z,4.70
2019-01-17T03:36:11.314Z,4.70
2019-01-17T03:38:40.184Z,4.70
2019-01-17T03:41:09.458Z,4.80
2019-01-17T03:43:38.406Z,4.80
2019-01-17T03:46:07.483Z,4.80
2019-01-17T03:48:36.517Z,4.90
2019-01-17T03:51:05.622Z,4.90
2019-01-17T03:53:34.678Z,4.90
2019-01-17T03:56:04.152Z,4.90
2019-01-17T03:58:33.092Z,4.90
2019-01-17T04:01:02.207Z,4.90
2019-01-17T04:03:31.233Z,5.00
2019-01-17T04:06:00.445Z,5.00
2019-01-17T04:08:29.492Z,5.00
2019-01-17T04:10:58.604Z,5.00
2019-01-17T04:13:27.611Z,5.00
2019-01-17T04:15:56.655Z,5.10
2019-01-17T04:18:25.715Z,5.10
2019-01-17T04:20:54.634Z,5.10
2019-01-17T04:23:26.792Z,5.10
2019-01-17T04:25:55.750Z,5.10
2019-01-17T04:28:24.784Z,5.10
2019-01-17T04:30:54.054Z,5.10
2019-01-17T04:33:23.117Z,5.20
2019-01-17T04:35:52.149Z,5.20
2019-01-17T04:38:21.342Z,5.20
2019-01-17T04:40:50.265Z,5.20
2019-01-17T04:43:19.219Z,5.20
2019-01-17T04:45:48.299Z,5.30
2019-01-17T04:48:17.308Z,5.30
2019-01-17T04:50:46.325Z,5.40
2019-01-17T04:53:15.265Z,5.40
2019-01-17T04:55:44.552Z,5.40
2019-01-17T04:58:13.756Z,5.40
2019-01-17T05:00:42.697Z,5.40
2019-01-17T05:03:11.683Z,5.50
2019-01-17T05:05:40.813Z,5.50
2019-01-17T05:08:10.479Z,5.50
2019-01-17T05:10:39.604Z,5.50
2019-01-17T05:13:08.676Z,5.60
2019-01-17T05:15:38.096Z,5.60
2019-01-17T05:18:07.156Z,5.60
2019-01-17T05:20:36.558Z,5.60
2019-01-17T05:23:06.867Z,5.60
2019-01-17T05:25:37.219Z,5.60
2019-01-17T05:28:06.229Z,5.60
2019-01-17T05:30:35.242Z,5.60
2019-01-17T05:33:04.271Z,5.60
2019-01-17T05:35:33.352Z,5.60
2019-01-17T05:38:02.359Z,5.60
2019-01-17T05:40:31.331Z,5.60
2019-01-17T05:43:00.360Z,5.70
2019-01-17T05:45:29.349Z,5.60
2019-01-17T05:47:58.309Z,5.70
2019-01-17T05:50:27.565Z,5.70
2019-01-17T05:52:56.594Z,5.60
2019-01-17T05:55:25.701Z,5.70
2019-01-17T05:57:55.081Z,5.70
2019-01-17T06:00:24.359Z,5.70
2019-01-17T06:02:53.313Z,5.70
2019-01-17T06:05:22.935Z,5.70
2019-01-17T06:07:52.089Z,5.70
2019-01-17T06:10:21.703Z,5.70
2019-01-17T06:12:51.615Z,5.80
2019-01-17T06:15:22.751Z,5.80
2019-01-17T06:17:52.103Z,5.70
2019-01-17T06:20:21.463Z,5.70
2019-01-17T06:22:50.401Z,5.70
2019-01-17T06:25:19.406Z,5.70
2019-01-17T06:27:48.455Z,5.70
2019-01-17T06:30:18.266Z,5.70
2019-01-17T06:32:47.792Z,5.70
2019-01-17T06:35:16.872Z,5.70
2019-01-17T06:37:45.913Z,5.70
2019-01-17T06:40:18.543Z,5.70
2019-01-17T06:42:47.661Z,5.70
2019-01-17T06:45:16.676Z,5.80
2019-01-17T06:47:49.582Z,5.70
2019-01-17T06:50:20.270Z,5.80
2019-01-17T06:52:49.284Z,5.80
2019-01-17T06:55:18.642Z,5.70
2019-01-17T06:57:47.591Z,5.80
2019-01-17T07:00:17.027Z,5.80
2019-01-17T07:02:46.371Z,5.80
2019-01-17T07:05:15.568Z,5.80
2019-01-17T07:07:44.694Z,5.80
2019-01-17T07:10:15.494Z,5.80
2019-01-17T07:12:46.247Z,5.80
2019-01-17T07:15:15.612Z,5.80
2019-01-17T07:17:44.717Z,5.90
2019-01-17T07:20:14.759Z,5.80
2019-01-17T07:22:44.546Z,5.80
2019-01-17T07:25:13.571Z,5.80
2019-01-17T07:27:42.698Z,5.80
2019-01-17T07:30:31.105Z,5.80
2019-01-17T07:33:00.122Z,5.90
2019-01-17T07:35:29.058Z,5.90
2019-01-17T07:37:58.131Z,5.90
2019-01-17T07:40:27.094Z,5.90
2019-01-17T07:42:56.159Z,5.90
2019-01-17T07:45:27.864Z,6.00
2019-01-17T07:47:56.997Z,6.00
2019-01-17T07:50:26.090Z,6.00
2019-01-17T07:52:55.219Z,6.00
2019-01-17T07:55:24.539Z,6.00
2019-01-17T07:57:53.596Z,6.10
2019-01-17T08:00:23.397Z,6.10
2019-01-17T08:02:52.545Z,6.10
2019-01-17T08:05:21.543Z,6.10
2019-01-17T08:07:50.675Z,6.10
2019-01-17T08:10:20.217Z,6.10
2019-01-17T08:12:49.666Z,6.10
2019-01-17T08:15:18.736Z,6.10
2019-01-17T08:17:47.683Z,6.20
2019-01-17T08:20:19.415Z,6.20
2019-01-17T08:22:48.485Z,6.20
2019-01-17T08:25:17.754Z,6.30
2019-01-17T08:27:47.119Z,6.30
2019-01-17T08:30:18.830Z,6.20
2019-01-17T08:32:47.931Z,6.30
2019-01-17T08:35:17.201Z,6.30
2019-01-17T08:37:46.166Z,6.30
2019-01-17T08:40:20.345Z,6.40
2019-01-17T08:42:48.825Z,6.40
2019-01-17T08:45:18.293Z,6.50
2019-01-17T08:47:47.308Z,6.50
2019-01-17T08:50:16.523Z,6.60
2019-01-17T08:52:45.636Z,6.70
2019-01-17T08:55:14.764Z,6.70
2019-01-17T08:57:43.850Z,6.70
2019-01-17T09:00:15.440Z,6.70
2019-01-17T09:02:44.609Z,6.70
2019-01-17T09:05:13.558Z,6.70
2019-01-17T09:07:42.630Z,6.70
2019-01-17T09:10:15.035Z,6.70
2019-01-17T09:12:44.259Z,6.70
2019-01-17T09:15:14.440Z,6.80
2019-01-17T09:17:43.501Z,6.90
2019-01-17T09:20:13.850Z,7.00
2019-01-17T09:22:43.218Z,7.00
2019-01-17T09:25:13.680Z,6.90
2019-01-17T09:27:42.754Z,7.00
2019-01-17T09:30:14.533Z,7.00
2019-01-17T09:32:43.632Z,7.00
2019-01-17T09:35:15.872Z,7.10
2019-01-17T09:37:44.984Z,7.00
2019-01-17T09:40:16.321Z,7.00
2019-01-17T09:42:45.429Z,7.00
2019-01-17T09:45:14.665Z,7.00
2019-01-17T09:47:43.678Z,7.00
2019-01-17T09:50:15.396Z,7.10
2019-01-17T09:52:44.784Z,7.20
2019-01-17T09:55:13.961Z,7.30
2019-01-17T09:57:42.892Z,7.30
2019-01-17T10:00:16.838Z,7.30
2019-01-17T10:02:45.945Z,7.30
2019-01-17T10:05:15.119Z,7.40
2019-01-17T10:07:44.133Z,7.40
2019-01-17T10:10:15.330Z,7.50
2019-01-17T10:12:44.678Z,7.60
2019-01-17T10:15:38.171Z,7.50
2019-01-17T10:18:28.443Z,7.60
2019-01-17T10:21:08.859Z,7.70
2019-01-17T10:24:18.685Z,7.90
2019-01-17T10:27:10.270Z,8.00
2019-01-17T10:30:04.182Z,8.00
2019-01-17T10:33:05.668Z,7.90
2019-01-17T10:35:59.106Z,7.80
2019-01-17T10:38:49.375Z,7.70
2019-01-17T10:41:51.982Z,7.60
2019-01-17T10:45:14.446Z,7.70
2019-01-17T10:48:05.009Z,7.90
2019-01-17T10:51:16.973Z,7.90
2019-01-17T10:54:36.312Z,8.00
2019-01-17T10:57:33.333Z,8.00
2019-01-17T11:00:37.617Z,8.00
2019-01-17T11:03:46.765Z,8.10
2019-01-17T11:06:49.703Z,8.20
2019-01-17T11:09:39.621Z,8.10
2019-01-17T11:12:23.437Z,8.10
2019-01-17T11:15:17.318Z,8.30
2019-01-17T11:18:36.507Z,8.40
2019-01-17T11:21:58.557Z,8.30
2019-01-17T11:24:47.026Z,8.30
2019-01-17T11:28:00.040Z,8.30
2019-01-17T11:30:59.420Z,8.30
2019-01-17T11:33:49.913Z,8.40
2019-01-17T11:36:54.429Z,8.30
2019-01-17T11:39:43.823Z,8.20
2019-01-17T11:42:50.062Z,8.10
2019-01-17T11:46:03.097Z,8.00
2019-01-17T11:49:11.638Z,8.00
2019-01-17T11:52:06.472Z,8.00
2019-01-17T11:55:22.077Z,8.00
2019-01-17T11:58:47.322Z,8.10
2019-01-17T12:02:21.662Z,8.10
2019-01-17T12:04:49.246Z,8.30
2019-01-17T12:07:19.818Z,8.50
2019-01-17T12:09:49.189Z,8.40
2019-01-17T12:12:23.043Z,8.20
2019-01-17T12:14:54.189Z,8.10
2019-01-17T12:17:23.139Z,8.00
2019-01-17T12:19:52.051Z,8.00
2019-01-17T12:22:21.099Z,8.00
2019-01-17T12:24:49.957Z,7.90
2019-01-17T12:27:18.969Z,7.90
2019-01-17T12:29:48.210Z,7.80
2019-01-17T12:32:17.578Z,7.60
2019-01-17T12:34:46.577Z,7.60
2019-01-17T12:37:15.519Z,7.60
2019-01-17T12:39:44.586Z,7.70
2019-01-17T12:42:13.954Z,7.70
2019-01-17T12:44:43.200Z,7.60
2019-01-17T12:47:12.290Z,7.50
2019-01-17T12:49:41.271Z,7.40
2019-01-17T12:52:10.189Z,7.50
2019-01-17T12:54:39.208Z,7.70
2019-01-17T12:57:08.336Z,8.00
2019-01-17T12:59:37.848Z,8.30
2019-01-17T13:02:06.928Z,8.70
2019-01-17T13:04:36.123Z,8.90
2019-01-17T13:07:05.487Z,9.00
2019-01-17T13:09:34.704Z,9.10
2019-01-17T13:12:03.890Z,9.20
2019-01-17T13:14:33.083Z,9.20
2019-01-17T13:17:02.048Z,9.20
2019-01-17T13:19:31.201Z,9.20
2019-01-17T13:22:00.253Z,9.30
2019-01-17T13:24:29.248Z,9.40
2019-01-17T13:27:00.935Z,9.40
2019-01-17T13:29:28.970Z,9.40
2019-01-17T13:31:58.051Z,9.30
2019-01-17T13:34:26.991Z,9.20
2019-01-17T13:36:56.385Z,8.90
2019-01-17T13:39:25.365Z,8.60
2019-01-17T13:41:54.407Z,8.60
2019-01-17T13:44:23.472Z,8.60
2019-01-17T13:46:52.534Z,8.60
2019-01-17T13:49:21.478Z,8.60
2019-01-17T13:51:50.756Z,8.50
2019-01-17T13:54:19.850Z,8.50
2019-01-17T13:56:48.819Z,8.50
2019-01-17T13:59:17.726Z,8.50
2019-01-17T14:01:46.716Z,8.40
2019-01-17T14:04:15.707Z,8.30
2019-01-17T14:06:44.657Z,8.10
2019-01-17T14:09:13.649Z,7.90
2019-01-17T14:11:42.665Z,7.70
2019-01-17T14:14:11.703Z,7.70
2019-01-17T14:16:41.233Z,7.60
2019-01-17T14:19:10.211Z,7.60
2019-01-17T14:21:39.244Z,7.60
2019-01-17T14:24:08.531Z,7.60
2019-01-17T14:26:37.800Z,7.50
2019-01-17T14:29:06.920Z,7.40
2019-01-17T14:31:35.952Z,7.30
2019-01-17T14:34:05.110Z,7.20
2019-01-17T14:36:34.072Z,7.10
2019-01-17T14:39:04.344Z,7.00
2019-01-17T14:41:33.399Z,6.80
2019-01-17T14:44:02.402Z,6.70
2019-01-17T14:46:31.693Z,6.60
2019-01-17T14:49:01.550Z,6.40
2019-01-17T14:51:30.648Z,6.30
2019-01-17T14:53:59.631Z,6.20
2019-01-17T14:56:28.835Z,6.20
2019-01-17T14:58:58.339Z,6.10
2019-01-17T15:01:27.342Z,6.20
2019-01-17T15:03:56.383Z,6.10
2019-01-17T15:06:25.354Z,6.00
2019-01-17T15:08:56.756Z,6.00
2019-01-17T15:11:25.781Z,6.00
2019-01-17T15:13:54.723Z,5.90
2019-01-17T15:16:23.681Z,5.80
2019-01-17T15:18:52.686Z,5.80
2019-01-17T15:21:21.882Z,5.80
2019-01-17T15:23:50.761Z,5.70
2019-01-17T15:26:19.790Z,5.60
2019-01-17T15:28:49.054Z,5.50
2019-01-17T15:31:18.160Z,5.40
2019-01-17T15:33:47.133Z,5.30
2019-01-17T15:36:16.182Z,5.20
2019-01-17T15:38:45.111Z,5.10
2019-01-17T15:41:14.279Z,5.10
2019-01-17T15:43:43.372Z,5.00
2019-01-17T15:46:12.663Z,5.10
2019-01-17T15:48:41.695Z,5.10
2019-01-17T15:51:10.959Z,5.20
2019-01-17T15:53:40.328Z,5.20
2019-01-17T15:56:09.340Z,5.10
2019-01-17T15:58:38.280Z,5.10
2019-01-17T16:01:07.354Z,5.00
2019-01-17T16:03:36.581Z,5.00
2019-01-17T16:06:05.831Z,5.00
2019-01-17T16:08:34.834Z,5.00
2019-01-17T16:11:03.846Z,4.90
2019-01-17T16:13:33.081Z,4.80
2019-01-17T16:16:02.078Z,4.80
2019-01-17T16:18:31.064Z,4.70
2019-01-17T16:21:00.637Z,4.70
2019-01-17T16:23:29.871Z,4.70
2019-01-17T16:25:59.090Z,4.60
2019-01-17T16:28:28.308Z,4.60
2019-01-17T16:30:57.346Z,4.60
2019-01-17T16:33:26.339Z,4.70
2019-01-17T16:35:55.837Z,4.80
2019-01-17T16:38:24.777Z,5.00
2019-01-17T16:40:54.002Z,5.10
2019-01-17T16:43:22.984Z,5.20
2019-01-17T16:45:52.035Z,5.30
2019-01-17T16:48:21.049Z,5.40
2019-01-17T16:50:50.229Z,5.40
2019-01-17T16:53:19.287Z,5.50
2019-01-17T16:55:48.234Z,5.50
2019-01-17T16:58:17.257Z,5.60
2019-01-17T17:00:47.013Z,5.60
2019-01-17T17:03:16.003Z,5.60
2019-01-17T17:05:45.378Z,5.60
2019-01-17T17:08:14.507Z,5.50
2019-01-17T17:10:43.476Z,5.60
2019-01-17T17:13:12.466Z,5.60
2019-01-17T17:15:41.473Z,5.50
2019-01-17T17:18:10.457Z,5.40
2019-01-17T17:20:39.536Z,5.40
2019-01-17T17:23:08.579Z,5.40
2019-01-17T17:25:37.680Z,5.30
2019-01-17T17:28:06.851Z,5.30
2019-01-17T17:30:35.914Z,5.30
2019-01-17T17:33:05.412Z,5.30
2019-01-17T17:35:34.726Z,5.40
2019-01-17T17:38:03.757Z,5.50
2019-01-17T17:40:32.964Z,5.50
2019-01-17T17:43:01.990Z,5.50
2019-01-17T17:45:31.311Z,5.50
2019-01-17T17:48:01.843Z,5.40
2019-01-17T17:50:30.944Z,5.40
2019-01-17T17:53:00.299Z,5.20
2019-01-17T17:55:29.433Z,5.20
2019-01-17T17:58:02.149Z,5.00
2019-01-17T18:00:37.281Z,4.70
2019-01-17T18:03:06.414Z,4.30
2019-01-17T18:05:35.447Z,3.70
2019-01-17T18:08:04.752Z,3.30
2019-01-17T18:10:33.695Z,3.00
2019-01-17T18:13:02.742Z,2.90
2019-01-17T18:15:31.703Z,2.80
2019-01-17T18:18:00.722Z,2.70
2019-01-17T18:20:30.037Z,2.70
2019-01-17T18:22:59.020Z,2.60
2019-01-17T18:25:28.038Z,2.50
2019-01-17T18:27:57.387Z,2.40
2019-01-17T18:30:26.549Z,2.50
2019-01-17T18:32:55.624Z,2.40
2019-01-17T18:35:24.728Z,2.50
2019-01-17T18:37:53.741Z,2.50
2019-01-17T18:40:23.209Z,2.50
2019-01-17T18:42:52.173Z,2.50
2019-01-17T18:45:21.965Z,2.50
2019-01-17T18:47:51.299Z,2.60
2019-01-17T18:50:22.546Z,2.60
2019-01-17T18:52:51.567Z,2.60
2019-01-17T18:55:20.709Z,2.70
2019-01-17T18:57:49.710Z,2.80
2019-01-17T19:00:30.678Z,2.80
2019-01-17T19:02:59.857Z,2.70
2019-01-17T19:05:29.774Z,2.70
2019-01-17T19:07:58.773Z,2.60
2019-01-17T19:10:27.868Z,2.70
2019-01-17T19:12:56.872Z,2.70
2019-01-17T19:15:31.481Z,2.70
2019-01-17T19:18:00.867Z,2.80
2019-01-17T19:20:29.947Z,2.80
2019-01-17T19:22:59.373Z,2.80
2019-01-17T19:25:28.564Z,2.80
2019-01-17T19:27:57.612Z,2.80
2019-01-17T19:30:28.735Z,2.80
2019-01-17T19:32:57.992Z,2.80
2019-01-17T19:35:27.083Z,2.80
2019-01-17T19:37:56.291Z,2.70
2019-01-17T19:40:26.955Z,2.70
2019-01-17T19:42:56.109Z,2.70
2019-01-17T19:45:25.122Z,2.80
2019-01-17T19:47:54.228Z,2.80
2019-01-17T19:50:29.097Z,2.70
2019-01-17T19:52:59.658Z,2.80
2019-01-17T19:55:28.711Z,2.70
2019-01-17T19:57:57.813Z,2.80
2019-01-17T20:00:26.724Z,2.90
2019-01-17T20:02:55.756Z,2.90
2019-01-17T20:05:25.829Z,2.90
2019-01-17T20:08:14.046Z,2.90
2019-01-17T20:10:43.317Z,2.90
2019-01-17T20:13:13.002Z,3.00
2019-01-17T20:15:42.107Z,3.00
2019-01-17T20:18:11.140Z,3.00
2019-01-17T20:20:40.231Z,3.10
2019-01-17T20:23:09.474Z,3.10
2019-01-17T20:25:38.869Z,3.10
2019-01-17T20:28:07.862Z,3.00
2019-01-17T20:30:38.175Z,3.00
2019-01-17T20:33:08.033Z,3.00
2019-01-17T20:35:37.269Z,3.10
2019-01-17T20:38:06.933Z,3.10
2019-01-17T20:40:37.084Z,3.20
2019-01-17T20:43:06.138Z,3.20
2019-01-17T20:45:35.600Z,3.20
2019-01-17T20:48:04.962Z,3.20
2019-01-17T20:50:34.747Z,3.20
2019-01-17T20:53:04.021Z,3.20
2019-01-17T20:55:33.057Z,3.20
2019-01-17T20:58:01.930Z,3.20
2019-01-17T21:00:37.815Z,3.20
2019-01-17T21:03:08.679Z,3.20
2019-01-17T21:05:37.717Z,3.20
2019-01-17T21:08:06.897Z,3.20
2019-01-17T21:10:35.973Z,3.20
2019-01-17T21:13:05.734Z,3.20
2019-01-17T21:15:35.076Z,3.20
2019-01-17T21:18:04.574Z,3.20
2019-01-17T21:20:33.517Z,3.20
2019-01-17T21:23:02.513Z,3.20
2019-01-17T21:25:31.741Z,3.20
2019-01-17T21:28:00.720Z,3.10
2019-01-17T21:30:29.739Z,3.00
2019-01-17T21:32:58.715Z,3.00
2019-01-17T21:35:27.856Z,3.00
2019-01-17T21:37:57.139Z,2.90
2019-01-17T21:40:26.208Z,2.90
2019-01-17T21:42:55.163Z,3.00
2019-01-17T21:45:24.578Z,3.00
2019-01-17T21:47:53.843Z,3.00
2019-01-17T21:50:25.623Z,2.90
2019-01-17T21:52:54.899Z,2.90
2019-01-17T21:55:24.078Z,2.90
2019-01-17T21:57:53.152Z,2.90
2019-01-17T22:00:26.209Z,2.80
2019-01-17T22:02:55.607Z,2.70
2019-01-17T22:05:24.772Z,2.60
2019-01-17T22:07:53.779Z,2.60
2019-01-17T22:10:23.177Z,2.50
2019-01-17T22:12:52.276Z,2.50
2019-01-17T22:15:23.042Z,2.40
2019-01-17T22:17:52.587Z,2.40
2019-01-17T22:20:21.691Z,2.30
2019-01-17T22:22:50.693Z,2.30
2019-01-17T22:25:19.842Z,2.40
2019-01-17T22:27:50.057Z,2.40
2019-01-17T22:30:21.359Z,2.40
2019-01-17T22:32:51.024Z,2.40
2019-01-17T22:35:20.069Z,2.40
2019-01-17T22:37:49.353Z,2.50
2019-01-17T22:40:19.649Z,2.50
2019-01-17T22:42:48.729Z,2.50
2019-01-17T22:45:23.407Z,2.60
2019-01-17T22:47:52.398Z,2.60
2019-01-17T22:50:21.542Z,2.60
2019-01-17T22:52:51.666Z,2.70
2019-01-17T22:55:20.670Z,2.70
2019-01-17T22:57:49.909Z,2.60
2019-01-17T23:00:51.295Z,2.70
2019-01-17T23:03:22.527Z,2.60
2019-01-17T23:05:52.035Z,2.70
2019-01-17T23:08:23.723Z,2.60
2019-01-17T23:10:52.733Z,2.60
2019-01-17T23:13:21.602Z,2.60
2019-01-17T23:15:51.011Z,2.60
2019-01-17T23:18:20.306Z,2.60
2019-01-17T23:20:49.666Z,2.60
2019-01-17T23:23:18.993Z,2.70
2019-01-17T23:25:47.925Z,2.60
2019-01-17T23:28:16.804Z,2.60
2019-01-17T23:30:45.853Z,2.60
2019-01-17T23:33:15.163Z,2.60
2019-01-17T23:35:44.238Z,2.60
2019-01-17T23:38:13.241Z,2.50
2019-01-17T23:40:42.345Z,2.60
2019-01-17T23:43:11.372Z,2.60
2019-01-17T23:45:40.399Z,2.60
2019-01-17T23:48:09.642Z,2.50
2019-01-17T23:50:38.603Z,2.50
2019-01-17T23:53:07.589Z,2.50
2019-01-17T23:55:36.608Z,2.50
2019-01-17T23:58:08.234Z,2.60
